LFLN Airport Information

Runway Information
Runway 15L Length 6660 ft width 148 ft
Elevation 782 ft Threshold 0 ft Heading 148
Runway 33R Length 6660 ft Width 148 ft
Elevation 796 ft Threshold 0 ft Heading 328
Runway 15R Length 4921 ft width 98 ft
Elevation 784 ft Threshold 0 ft Heading 148
Runway 33L Length 4921 ft Width 98 ft
Elevation 794 ft Threshold 295 ft Heading 328
Airport Frequencies
Type APP Name APP Frequency 119.5 MHZ
Type ATIS Name ATIS Frequency 132.475 MHZ
Type GND Name GND Frequency 121.8 MHZ
Type TWR Name TWR Frequency 122.3 MHZ
Airport Navaids
Airport Weather Information & NOTAM
ADDS - METARS form results

(0110 UTC 22 May 2022)
Data provider http://aviationweather.gov/metar/data/
 
METAR text: LFLN 220100Z AUTO 03004KT CAVOK 17/13 Q1015
Conditions at: LFLN (SAINT YAN , FR) observed 0100 UTC 22 May 2022
Temperature: 17.0°C (63°F)
Dewpoint: 13.0°C (55°F) [RH = 77%]
Pressure (altimeter): 29.97 inches Hg (1015.0 mb)
Winds: from the NNE (30 degrees) at 5 MPH (4 knots; 2.1 m/s)
Visibility: 6 or more miles (10+ km)
Ceiling: ceiling and visibility are OK
Clouds: unknown
Weather: no significant weather observed at this time

METAR text: LFLN 220030Z AUTO 02005KT CAVOK 18/13 Q1016
Conditions at: LFLN (SAINT YAN , FR) observed 0030 UTC 22 May 2022
Temperature: 18.0°C (64°F)
Dewpoint: 13.0°C (55°F) [RH = 73%]
Pressure (altimeter): 30.00 inches Hg (1016.0 mb)
Winds: from the NNE (20 degrees) at 6 MPH (5 knots; 2.6 m/s)
Visibility: 6 or more miles (10+ km)
Ceiling: ceiling and visibility are OK
Clouds: unknown
Weather: no significant weather observed at this time

Forecast for: LFLN (SAINT YAN , FR)
Text: TAF LFLN 211700Z 2118/2203 07007KT CAVOK
Forecast period: 1800 UTC 21 May 2022 to 0300 UTC 22 May 2022
Forecast type: FROM: standard forecast or significant change
Winds: from the ENE (70 degrees) at 8 MPH (7 knots; 3.6 m/s)
Visibility: 6 or more miles (10+ km)
Ceiling: unknown
Clouds: missing
Weather: NSW  (no significant weather)